WetterOnline ( https://www.wetteronline.de )

Wetter aktuell Marburg

Aktuelles Wetter: Neu-Ulrichstein (350m)

6-stündlich | Neueste Meldungen
Ortszeit Temperatur Wetter
Mi, 24.04. 8:00 12.9° C bedeckt
Mi, 24.04. 2:00 13.2° C leichter Regen
Di, 23.04. 20:00 16.6° C bewölkt
Di, 23.04. 14:00 17.4° C fast wolkenlos
Di, 23.04. 8:00 8.2° C wolkenlos
Di, 23.04. 2:00 8.2° C wolkenlos
Mo, 22.04. 20:00 15.7° C leicht bewölkt
Mo, 22.04. 14:00 19.7° C leicht bewölkt
Ortszeit Temperatur Wetter
Mi, 24.04. 8:30 13.0° C bedeckt
Mi, 24.04. 8:20 13.0° C bedeckt
Mi, 24.04. 8:10 12.6° C bedeckt
Mi, 24.04. 8:00 12.9° C bedeckt
Mi, 24.04. 7:50 12.9° C bedeckt
Mi, 24.04. 7:40 12.5° C bedeckt
Mi, 24.04. 7:30 12.0° C bedeckt
Mi, 24.04. 7:00 11.1° C wolkig
Mi, 24.04. 6:30 11.4° C wolkenlos
Mi, 24.04. 6:00 11.5° C fast wolkenlos
Mi, 24.04. 5:30 12.2° C bewölkt
Ortszeit Relative Feuchte Sichtweite
Mi, 24.04. 8:00 68% 45 km
Mi, 24.04. 2:00 68% 27 km
Di, 23.04. 20:00 55% 35 km
Di, 23.04. 14:00 49% 30 km
Di, 23.04. 8:00 68% 35 km
Di, 23.04. 2:00 59% 55 km
Mo, 22.04. 20:00 35% 35 km
Mo, 22.04. 14:00 35% 60 km
Ortszeit Relative Feuchte Sichtweite
Mi, 24.04. 8:30 71% 40 km
Mi, 24.04. 8:20 71% -
Mi, 24.04. 8:10 72% -
Mi, 24.04. 8:00 68% 45 km
Mi, 24.04. 7:50 68% -
Mi, 24.04. 7:40 70% -
Mi, 24.04. 7:30 72% 55 km
Mi, 24.04. 7:00 74% 45 km
Mi, 24.04. 6:30 71% 45 km
Mi, 24.04. 6:00 70% 40 km
Mi, 24.04. 5:30 69% 45 km
Ortszeit Niederschlagsmenge Niederschlagsart
Mi, 24.04. 8:00 0.1 l/m2 in 12 Std. Regen
Mi, 24.04. 2:00 0.1 l/m2 in 6 Std. Regen
Di, 23.04. 20:00 0.0 l/m2 in 12 Std. -
Di, 23.04. 14:00 0.0 l/m2 in 6 Std. -
Di, 23.04. 8:00 0.0 l/m2 in 12 Std. -
Di, 23.04. 2:00 0.0 l/m2 in 6 Std. -
Mo, 22.04. 20:00 0.0 l/m2 in 12 Std. -
Mo, 22.04. 14:00 0.0 l/m2 in 6 Std. -
Ortszeit Niederschlagsmenge Niederschlagsart
Mi, 24.04. 8:30 0.0 l/m2 in 1 Std. -
Mi, 24.04. 8:20 keine Meldung -
Mi, 24.04. 8:10 keine Meldung -
Mi, 24.04. 8:00 0.0 l/m2 in 1 Std. Regen
Mi, 24.04. 7:50 keine Meldung -
Mi, 24.04. 7:40 keine Meldung -
Mi, 24.04. 7:30 0.0 l/m2 in 1 Std. -
Mi, 24.04. 7:00 0.0 l/m2 in 1 Std. -
Mi, 24.04. 6:30 0.0 l/m2 in 1 Std. -
Mi, 24.04. 6:00 0.0 l/m2 in 1 Std. -
Mi, 24.04. 5:30 0.0 l/m2 in 1 Std. -
Ortszeit Stärke Spitze Richtung
km/h Bft. km/h Grad Sektor
Mi, 24.04. 8:00 13 3 17 80° O
Mi, 24.04. 2:00 4 1 25 340° N
Di, 23.04. 20:00 11 2 44 80° O
Di, 23.04. 14:00 24 4 39 60° NO
Di, 23.04. 8:00 22 4 32 50° NO
Di, 23.04. 2:00 13 3 48 40° NO
Mo, 22.04. 20:00 31 5 48 60° NO
Mo, 22.04. 14:00 25 4 40 70° O
Ortszeit Stärke Spitze Richtung
km/h Bft. km/h Grad Sektor
Mi, 24.04. 8:30 9 2 17 90° O
Mi, 24.04. 8:20 9 2 - 90° O
Mi, 24.04. 8:10 11 2 - 90° O
Mi, 24.04. 8:00 13 3 17 80° O
Mi, 24.04. 7:50 13 3 - 80° O
Mi, 24.04. 7:40 13 3 - 70° O
Mi, 24.04. 7:30 11 2 14 80° O
Mi, 24.04. 7:00 11 2 14 80° O
Mi, 24.04. 6:30 11 2 13 70° O
Mi, 24.04. 6:00 9 2 13 80° O
Mi, 24.04. 5:30 11 2 11 70° O
Ortszeit Untergrenze Bedeckung Gattung
total tief tief mittel hoch
Mi, 24.04. 8:00 3300 m 8/8 8/8 - - -
Mi, 24.04. 2:00 2400 m 8/8 8/8 - - -
Di, 23.04. 20:00 3900 m 8/8 7/8 - - -
Di, 23.04. 14:00 8700 m 2/8 0/8 - - -
Di, 23.04. 8:00 - 0/8 0/8 - - -
Di, 23.04. 2:00 - 0/8 0/8 - - -
Mo, 22.04. 20:00 9000 m 8/8 0/8 - - -
Mo, 22.04. 14:00 9000 m 8/8 0/8 - - -
Ortszeit Bedeckungsgrad in Achtel und Wolkenuntergrenze
Mi, 24.04. 8:30 8(3300m) 8(9000m)
Mi, 24.04. 8:20 8(3300m) 8(9000m)
Mi, 24.04. 8:10 8(3300m) 8(4800m)
Mi, 24.04. 8:00 8(3300m) 8(4800m)
Mi, 24.04. 7:50 8(3300m) 8(4800m)
Mi, 24.04. 7:40 8(3600m) 8(4800m)
Mi, 24.04. 7:30 8(3300m) 8(4800m)
Mi, 24.04. 7:00 6(3900m)
Mi, 24.04. 6:30 keine Wolken
Mi, 24.04. 6:00 1(3900m)
Mi, 24.04. 5:30 4(2700m) 8(3900m) 8(4500m)
Ortszeit Luftdruck NN (hPa) Tendenz (hPa in 3 Std.)
Mi, 24.04. 8:00 1002 + 1,1
Mi, 24.04. 2:00 1000 + 0,5
Di, 23.04. 20:00 998 - 0,2
Di, 23.04. 14:00 999 - 1,4
Di, 23.04. 8:00 1003 - 1,3
Di, 23.04. 2:00 1006 - 1,6
Mo, 22.04. 20:00 1007 - 0,7
Mo, 22.04. 14:00 1010 - 2,4
Ortszeit Luftdruck NN (hPa) Tendenz (hPa in 3 Std.)
Mi, 24.04. 8:30 1002 + 1,2
Mi, 24.04. 8:20 1002 keine Meldung
Mi, 24.04. 8:10 1002 keine Meldung
Mi, 24.04. 8:00 1002 + 1,1
Mi, 24.04. 7:50 1002 keine Meldung
Mi, 24.04. 7:40 1002 keine Meldung
Mi, 24.04. 7:30 1002 + 1,0
Mi, 24.04. 7:00 1002 + 1,2
Mi, 24.04. 6:30 1002 + 1,0
Mi, 24.04. 6:00 1001 + 0,7
Mi, 24.04. 5:30 1001 + 0,5
Ortszeit Schneehöhe (cm)
Mi, 24.04. 8:00 0
Mi, 24.04. 2:00 0
Di, 23.04. 20:00 0
Di, 23.04. 14:00 0
Di, 23.04. 8:00 0
Di, 23.04. 2:00 0
Mo, 22.04. 20:00 0
Mo, 22.04. 14:00 0
Ortszeit Schneehöhe (cm)
Mi, 24.04. 8:30 0
Mi, 24.04. 8:20 0
Mi, 24.04. 8:10 0
Mi, 24.04. 8:00 0
Mi, 24.04. 7:50 0
Mi, 24.04. 7:40 0
Mi, 24.04. 7:30 0
Mi, 24.04. 7:00 0
Mi, 24.04. 6:30 0
Mi, 24.04. 6:00 0
Mi, 24.04. 5:30 0
Link zu dieser Seite / Seite empfehlen

Das Wetter in ...